Time;durP1;ratioP1;P1;durP2;ratioP2;P2;SDS_P1;SDS_P2;PMS_P1;PMS_P2;Temp;Humidity;BMP_temperature;BMP_pressure;BME280_temperature;BME280_humidity;BME280_pressure;Samples;Min_cycle;Max_cycle;Signal;HPM_P1;HPM_P2
2023/10/06 00:01:44;;;;;;;32.17;29.50;;;14.20;99.90;;;;;;6141111;23;20041;-85
2023/10/06 00:04:15;;;;;;;33.15;30.35;;;14.00;99.90;;;;;;6141184;23;20087;-85
2023/10/06 00:06:42;;;;;;;33.15;30.60;;;14.10;99.90;;;;;;6140680;23;20087;-85
2023/10/06 00:09:25;;;;;;;32.25;29.60;;;14.00;99.90;;;;;;6166042;23;20017;-85
2023/10/06 00:11:51;;;;;;;41.05;37.63;;;14.40;99.90;;;;;;6141065;23;20009;-85
2023/10/06 00:14:29;;;;;;;31.90;29.23;;;14.00;99.90;;;;;;6165718;23;20461;-84
2023/10/06 00:16:57;;;;;;;34.40;31.48;;;14.00;99.90;;;;;;6165499;23;20013;-85
2023/10/06 00:19:26;;;;;;;37.97;35.05;;;14.00;99.90;;;;;;6165025;23;20017;-85
2023/10/06 00:22:08;;;;;;;28.45;26.05;;;14.00;99.90;;;;;;6165531;23;20036;-84
2023/10/06 00:24:36;;;;;;;27.92;25.30;;;14.10;99.90;;;;;;6164903;23;20060;-85
2023/10/06 00:27:03;;;;;;;30.63;27.75;;;14.00;99.90;;;;;;6164637;23;20015;-84
2023/10/06 00:29:29;;;;;;;34.42;31.63;;;14.00;99.90;;;;;;6165358;23;20675;-84
2023/10/06 00:32:02;;;;;;;38.53;35.55;;;14.30;99.90;;;;;;6164924;23;20419;-84
2023/10/06 00:34:34;;;;;;;31.40;28.73;;;14.00;99.90;;;;;;6141807;23;20021;-84
2023/10/06 00:37:02;;;;;;;40.55;37.55;;;14.00;99.90;;;;;;6165695;23;20020;-85
2023/10/06 00:39:30;;;;;;;26.80;24.67;;;14.00;99.90;;;;;;6165835;23;20452;-85
2023/10/06 00:42:02;;;;;;;37.22;34.20;;;14.00;99.90;;;;;;6165508;23;20436;-85
2023/10/06 00:44:29;;;;;;;41.00;37.80;;;14.00;99.90;;;;;;6139941;23;20032;-84
2023/10/06 00:46:58;;;;;;;32.22;28.90;;;13.90;99.90;;;;;;6140584;23;20028;-84
2023/10/06 00:49:30;;;;;;;36.25;32.83;;;13.90;99.90;;;;;;6164210;23;20032;-84
2023/10/06 00:51:56;;;;;;;32.78;30.00;;;13.90;99.90;;;;;;6165085;23;20013;-84
2023/10/06 00:54:25;;;;;;;44.47;40.97;;;13.70;99.90;;;;;;6165465;23;20506;-83
2023/10/06 00:56:57;;;;;;;41.08;38.13;;;13.60;99.90;;;;;;6165403;23;20041;-84
2023/10/06 00:59:26;;;;;;;46.33;43.03;;;13.80;99.90;;;;;;6140647;23;20452;-84
2023/10/06 01:01:52;;;;;;;35.92;33.05;;;13.80;99.90;;;;;;6140461;23;20167;-84
2023/10/06 01:04:24;;;;;;;33.83;31.15;;;13.80;99.90;;;;;;6165079;23;20036;-84
2023/10/06 01:06:54;;;;;;;31.08;28.10;;;13.80;99.90;;;;;;6164915;23;20009;-84
2023/10/06 01:09:30;;;;;;;40.10;36.95;;;13.90;99.90;;;;;;6164709;23;20023;-84
2023/10/06 01:11:57;;;;;;;42.72;39.47;;;13.80;99.90;;;;;;6165026;23;20017;-84
2023/10/06 01:14:27;;;;;;;31.42;28.70;;;13.90;99.90;;;;;;6164781;23;20075;-84
2023/10/06 01:17:04;;;;;;;38.92;35.55;;;13.90;99.90;;;;;;6165325;23;20021;-84
2023/10/06 01:19:33;;;;;;;32.83;29.80;;;13.90;99.90;;;;;;6140709;23;20012;-83
2023/10/06 01:22:20;;;;;;;31.00;28.20;;;13.90;99.90;;;;;;6140364;23;20013;-84
2023/10/06 01:24:46;;;;;;;31.73;28.70;;;13.90;99.90;;;;;;6140870;23;20391;-85
2023/10/06 01:27:12;;;;;;;32.22;29.17;;;13.90;99.90;;;;;;6139760;23;20421;-85
2023/10/06 01:29:38;;;;;;;37.58;34.67;;;13.90;99.90;;;;;;6140366;23;20080;-84
2023/10/06 01:32:08;;;;;;;44.40;41.08;;;14.10;99.90;;;;;;6140285;23;20032;-84
2023/10/06 01:34:38;;;;;;;34.03;31.13;;;13.70;99.90;;;;;;6139977;23;20020;-85
2023/10/06 01:37:09;;;;;;;36.35;33.63;;;13.90;99.90;;;;;;6166096;23;20084;-84
2023/10/06 01:39:35;;;;;;;39.03;35.47;;;13.90;99.90;;;;;;6164794;23;20004;-84
2023/10/06 01:42:06;;;;;;;42.83;39.45;;;13.90;99.90;;;;;;6164422;23;20055;-84
2023/10/06 01:44:34;;;;;;;40.00;36.10;;;13.90;99.90;;;;;;6140188;23;20032;-84
2023/10/06 01:47:04;;;;;;;36.75;33.90;;;13.90;99.90;;;;;;6140009;23;20024;-84
2023/10/06 01:49:31;;;;;;;44.20;40.90;;;14.00;99.90;;;;;;6165284;23;20079;-85
2023/10/06 01:51:57;;;;;;;33.45;30.58;;;14.00;99.90;;;;;;6165184;23;20051;-85
2023/10/06 01:54:27;;;;;;;40.63;37.15;;;14.00;99.90;;;;;;6165144;23;20452;-84
2023/10/06 01:56:54;;;;;;;39.92;36.85;;;14.60;99.90;;;;;;6141351;23;20024;-84
2023/10/06 01:59:20;;;;;;;41.17;36.97;;;14.00;99.90;;;;;;6165154;23;20044;-84
2023/10/06 02:01:47;;;;;;;32.25;28.90;;;14.00;99.90;;;;;;6140750;23;20207;-85
2023/10/06 02:04:19;;;;;;;36.42;33.60;;;14.10;99.90;;;;;;6140556;23;20013;-85
2023/10/06 02:06:45;;;;;;;38.58;35.15;;;14.10;99.90;;;;;;6165328;23;20041;-85
2023/10/06 02:09:18;;;;;;;38.63;35.30;;;14.10;99.90;;;;;;6165771;23;20017;-86
2023/10/06 02:11:51;;;;;;;43.15;39.53;;;14.40;99.90;;;;;;6140867;23;20017;-83
2023/10/06 02:14:17;;;;;;;37.97;34.95;;;14.10;99.90;;;;;;6166007;23;20017;-85
2023/10/06 02:16:48;;;;;;;38.70;35.42;;;14.10;99.90;;;;;;6141290;23;20032;-85
2023/10/06 02:19:17;;;;;;;34.38;31.30;;;14.10;99.90;;;;;;6164481;23;20359;-84
2023/10/06 02:21:52;;;;;;;34.67;31.83;;;14.10;99.90;;;;;;6164970;23;20017;-84
2023/10/06 02:24:18;;;;;;;48.13;44.15;;;14.20;99.90;;;;;;6165546;23;20044;-85
2023/10/06 02:26:50;;;;;;;33.60;30.60;;;14.20;99.90;;;;;;6139918;23;20020;-85
2023/10/06 02:29:24;;;;;;;42.95;38.83;;;14.10;99.90;;;;;;6141732;23;20041;-85
2023/10/06 02:31:51;;;;;;;40.88;36.70;;;14.20;99.90;;;;;;6165909;23;20064;-85
2023/10/06 02:34:29;;;;;;;34.60;31.30;;;14.20;99.90;;;;;;6141151;23;20013;-84
2023/10/06 02:37:00;;;;;;;39.63;36.65;;;14.20;99.90;;;;;;6165678;23;20021;-85
2023/10/06 02:39:28;;;;;;;41.35;37.03;;;14.50;99.90;;;;;;6165022;23;20009;-84
2023/10/06 02:41:58;;;;;;;34.80;31.80;;;14.20;99.90;;;;;;6141975;23;20091;-85
2023/10/06 02:44:26;;;;;;;45.45;41.72;;;14.20;99.90;;;;;;6164419;23;20013;-84
2023/10/06 02:46:52;;;;;;;36.35;33.33;;;14.20;99.90;;;;;;6140677;23;20344;-85
2023/10/06 02:49:31;;;;;;;35.15;31.33;;;14.20;99.90;;;;;;6165872;23;20028;-85
2023/10/06 02:52:01;;;;;;;32.70;29.63;;;14.20;99.90;;;;;;6165942;23;20021;-85
2023/10/06 02:54:29;;;;;;;44.85;41.25;;;14.20;99.90;;;;;;6141181;23;20013;-85
2023/10/06 02:56:56;;;;;;;33.92;30.80;;;14.30;99.90;;;;;;6141077;23;20013;-84
2023/10/06 02:59:26;;;;;;;31.65;28.92;;;14.20;99.90;;;;;;6141576;23;20020;-84
2023/10/06 03:01:57;;;;;;;31.08;28.27;;;14.10;99.90;;;;;;6165909;23;20024;-84
2023/10/06 03:04:27;;;;;;;40.88;37.30;;;14.10;99.90;;;;;;6165526;23;20013;-84
2023/10/06 03:06:58;;;;;;;43.88;39.80;;;14.00;99.90;;;;;;6141184;23;20383;-85
2023/10/06 03:09:27;;;;;;;43.63;39.92;;;14.00;99.90;;;;;;6165116;23;20021;-84
2023/10/06 03:11:58;;;;;;;40.85;37.60;;;13.90;99.90;;;;;;6140647;23;20120;-84
2023/10/06 03:14:24;;;;;;;47.70;43.22;;;14.00;99.90;;;;;;6140153;23;20021;-84
2023/10/06 03:16:51;;;;;;;41.20;37.40;;;13.90;99.90;;;;;;6164677;23;20017;-84
2023/10/06 03:19:24;;;;;;;54.78;50.80;;;14.40;99.90;;;;;;6164963;23;20009;-83
2023/10/06 03:21:53;;;;;;;54.90;50.63;;;13.80;99.90;;;;;;6164207;23;20021;-83
2023/10/06 03:24:20;;;;;;;41.60;38.33;;;13.80;99.90;;;;;;6139809;23;20009;-84
2023/10/06 03:26:46;;;;;;;53.47;49.67;;;14.00;99.90;;;;;;6139701;23;20020;-85
2023/10/06 03:29:28;;;;;;;47.10;43.13;;;13.80;99.90;;;;;;6164413;23;20017;-84
2023/10/06 03:31:56;;;;;;;41.72;38.13;;;13.90;99.90;;;;;;6140721;23;20039;-84
2023/10/06 03:34:23;;;;;;;49.22;44.75;;;13.90;99.90;;;;;;6164021;23;20024;-85
2023/10/06 03:36:51;;;;;;;51.63;47.55;;;13.90;99.90;;;;;;6165675;23;20472;-84
2023/10/06 03:39:29;;;;;;;38.25;34.53;;;13.90;99.90;;;;;;6143106;23;20067;-84
2023/10/06 03:42:03;;;;;;;47.72;44.08;;;13.90;99.90;;;;;;6142685;23;20013;-84
2023/10/06 03:44:30;;;;;;;41.05;37.70;;;14.00;99.90;;;;;;6166804;23;20024;-84
2023/10/06 03:47:00;;;;;;;43.33;39.30;;;14.10;99.90;;;;;;6142640;23;20353;-85
2023/10/06 03:49:26;;;;;;;43.05;39.53;;;13.90;99.90;;;;;;6142802;23;20037;-84
2023/10/06 03:51:55;;;;;;;48.95;44.75;;;13.90;99.90;;;;;;6167618;23;20068;-84
2023/10/06 03:54:22;;;;;;;45.85;41.85;;;13.90;99.90;;;;;;6168017;23;20017;-85
2023/10/06 03:56:49;;;;;;;39.83;35.55;;;13.90;99.90;;;;;;6194708;23;20052;-83
2023/10/06 03:59:16;;;;;;;42.80;39.05;;;14.20;99.90;;;;;;6170018;23;20027;-85
2023/10/06 04:01:45;;;;;;;39.63;36.30;;;13.90;99.90;;;;;;6167090;23;20013;-83
2023/10/06 04:04:15;;;;;;;49.83;45.60;;;13.90;99.90;;;;;;6167834;23;20013;-84
2023/10/06 04:06:41;;;;;;;41.55;37.97;;;13.90;99.90;;;;;;6143737;23;20048;-84
2023/10/06 04:09:08;;;;;;;45.35;41.40;;;13.90;99.90;;;;;;6168674;23;20264;-85
2023/10/06 04:11:34;;;;;;;50.05;46.03;;;13.90;99.90;;;;;;6168486;23;20047;-85
2023/10/06 04:14:01;;;;;;;47.45;43.70;;;13.90;99.90;;;;;;6142936;23;20017;-85
2023/10/06 04:16:26;;;;;;;46.10;42.33;;;13.90;99.90;;;;;;6142538;23;20009;-84
2023/10/06 04:18:52;;;;;;;42.17;38.05;;;13.90;99.90;;;;;;6167521;23;20017;-84
2023/10/06 04:21:18;;;;;;;43.67;39.92;;;14.10;99.90;;;;;;6167108;23;20044;-84
2023/10/06 04:23:44;;;;;;;45.08;41.30;;;13.90;99.90;;;;;;6165719;23;20056;-84
2023/10/06 04:26:11;;;;;;;54.28;50.20;;;13.90;99.90;;;;;;6167919;23;20060;-84
2023/10/06 04:28:37;;;;;;;46.70;42.92;;;13.90;99.90;;;;;;6142105;23;20348;-85
2023/10/06 04:31:07;;;;;;;55.55;51.25;;;14.20;99.90;;;;;;6142399;23;20016;-84
2023/10/06 04:33:33;;;;;;;42.65;38.65;;;13.90;99.90;;;;;;6166171;23;20021;-84
2023/10/06 04:36:08;;;;;;;50.10;46.13;;;13.60;99.90;;;;;;6166995;23;20028;-84
2023/10/06 04:38:38;;;;;;;48.45;44.67;;;13.90;99.90;;;;;;6142713;23;20028;-84
2023/10/06 04:41:08;;;;;;;53.10;48.85;;;13.90;99.90;;;;;;6167160;23;20020;-84
2023/10/06 04:43:44;;;;;;;44.25;40.33;;;13.90;99.90;;;;;;6166438;23;20009;-84
2023/10/06 04:46:11;;;;;;;40.20;36.35;;;13.90;99.90;;;;;;6166686;23;20017;-84
2023/10/06 04:48:38;;;;;;;43.90;40.00;;;13.90;99.90;;;;;;6165879;23;20044;-84
2023/10/06 04:51:09;;;;;;;50.53;46.42;;;13.90;99.90;;;;;;6165743;23;20013;-84
2023/10/06 04:53:36;;;;;;;50.17;46.10;;;13.90;99.90;;;;;;6142216;23;20075;-83
2023/10/06 04:56:06;;;;;;;43.47;39.83;;;13.90;99.90;;;;;;6165974;23;20017;-84
2023/10/06 04:58:32;;;;;;;42.70;39.22;;;13.90;99.90;;;;;;6166349;23;20020;-84
2023/10/06 05:01:01;;;;;;;37.90;34.50;;;13.90;99.90;;;;;;6192671;23;20064;-84
2023/10/06 05:03:27;;;;;;;46.42;42.40;;;13.90;99.90;;;;;;6166443;23;20017;-83
2023/10/06 05:05:55;;;;;;;50.70;46.63;;;13.90;99.90;;;;;;6166418;23;20063;-84
2023/10/06 05:08:24;;;;;;;48.17;44.17;;;13.30;99.90;;;;;;6166637;23;20013;-84
2023/10/06 05:10:51;;;;;;;38.80;35.58;;;13.90;99.90;;;;;;6142456;23;20083;-84
2023/10/06 05:13:16;;;;;;;40.95;37.33;;;13.90;99.90;;;;;;6167076;23;20017;-84
2023/10/06 05:15:43;;;;;;;49.58;45.53;;;13.90;99.90;;;;;;6141449;23;20028;-83
2023/10/06 05:18:15;;;;;;;36.35;33.00;;;13.60;99.90;;;;;;6164874;23;20075;-83
2023/10/06 05:20:42;;;;;;;42.80;39.25;;;13.90;99.90;;;;;;6140014;23;20616;-84
2023/10/06 05:23:14;;;;;;;41.80;38.63;;;13.90;99.90;;;;;;6165458;23;20504;-83
2023/10/06 05:25:40;;;;;;;44.25;40.22;;;13.90;99.90;;;;;;6140506;23;20494;-84
2023/10/06 05:28:16;;;;;;;43.42;39.85;;;13.90;99.90;;;;;;6140124;23;20009;-83
2023/10/06 05:30:43;;;;;;;44.35;40.65;;;14.20;99.90;;;;;;6164034;23;20096;-83
2023/10/06 05:33:09;;;;;;;38.90;35.80;;;13.90;99.90;;;;;;6140559;23;20085;-83
2023/10/06 05:35:39;;;;;;;43.10;39.17;;;13.90;99.90;;;;;;6140657;23;20260;-83
2023/10/06 05:38:08;;;;;;;40.03;36.78;;;14.10;99.90;;;;;;6140791;23;20023;-83
2023/10/06 05:40:35;;;;;;;35.35;31.98;;;14.50;99.90;;;;;;6140152;23;20013;-84
2023/10/06 05:43:04;;;;;;;29.35;26.77;;;14.00;99.90;;;;;;6140563;23;20036;-84
2023/10/06 05:45:30;;;;;;;33.92;30.75;;;13.90;99.90;;;;;;6140684;23;20052;-83
2023/10/06 05:47:58;;;;;;;42.88;38.88;;;14.00;99.90;;;;;;6165654;23;20444;-84
2023/10/06 05:50:28;;;;;;;43.88;39.75;;;13.90;99.90;;;;;;6165755;23;20088;-84
2023/10/06 05:53:08;;;;;;;41.20;37.45;;;14.00;99.90;;;;;;6165272;23;20021;-84
2023/10/06 05:55:37;;;;;;;33.85;30.45;;;14.00;99.90;;;;;;6141138;23;20089;-84
2023/10/06 05:58:08;;;;;;;39.10;35.95;;;14.00;99.90;;;;;;6192599;23;20068;-84
2023/10/06 06:00:35;;;;;;;32.47;29.58;;;14.00;99.90;;;;;;6140574;23;20013;-84
2023/10/06 06:03:09;;;;;;;40.63;37.42;;;14.00;99.90;;;;;;6165662;23;20013;-85
2023/10/06 06:05:36;;;;;;;46.72;42.63;;;14.00;99.90;;;;;;6168546;23;20019;-84
2023/10/06 06:08:03;;;;;;;32.53;29.25;;;14.00;99.90;;;;;;6166583;23;20017;-85
2023/10/06 06:10:29;;;;;;;42.78;38.33;;;14.10;99.90;;;;;;6141306;23;20032;-87
2023/10/06 06:12:56;;;;;;;48.35;43.70;;;14.30;99.90;;;;;;6144231;23;20013;-85
2023/10/06 06:15:22;;;;;;;37.10;33.50;;;14.10;99.90;;;;;;6144634;23;20013;-84
2023/10/06 06:17:49;;;;;;;37.55;34.25;;;14.20;99.90;;;;;;6144477;23;20064;-85
2023/10/06 06:20:18;;;;;;;42.03;38.65;;;14.20;99.90;;;;;;6144370;23;20013;-85
2023/10/06 06:22:53;;;;;;;41.22;37.40;;;14.20;99.90;;;;;;6145284;23;20036;-84
2023/10/06 06:25:26;;;;;;;36.67;33.42;;;14.20;99.90;;;;;;6144271;23;20017;-85
2023/10/06 06:27:54;;;;;;;30.70;27.65;;;14.30;99.90;;;;;;6144400;23;20009;-85
2023/10/06 06:30:21;;;;;;;34.83;30.77;;;14.30;99.90;;;;;;6144002;23;20013;-86
2023/10/06 06:32:50;;;;;;;30.75;27.63;;;14.30;99.90;;;;;;6167593;23;20447;-85
2023/10/06 06:35:21;;;;;;;45.03;41.30;;;14.40;99.90;;;;;;6168906;23;20068;-84
2023/10/06 06:37:56;;;;;;;33.17;29.85;;;14.70;99.90;;;;;;6145054;23;20017;-86
2023/10/06 06:40:22;;;;;;;34.22;31.08;;;14.40;99.90;;;;;;6167868;23;20020;-85
2023/10/06 06:42:55;;;;;;;32.00;29.42;;;14.20;99.90;;;;;;6166446;23;20013;-84
2023/10/06 06:45:21;;;;;;;41.08;37.45;;;14.60;99.90;;;;;;6163534;23;20068;-83
2023/10/06 06:47:47;;;;;;;37.17;33.83;;;14.50;99.90;;;;;;6138618;23;20017;-83
2023/10/06 06:50:15;;;;;;;33.63;28.15;;;14.50;99.90;;;;;;6138132;23;20017;-86
2023/10/06 06:52:42;;;;;;;37.05;33.45;;;14.50;99.90;;;;;;6138198;23;20017;-84
2023/10/06 06:55:14;;;;;;;27.10;23.90;;;14.60;99.90;;;;;;6138976;23;20040;-84
2023/10/06 06:57:48;;;;;;;37.38;34.35;;;14.20;99.90;;;;;;6163232;23;20009;-83
2023/10/06 07:00:21;;;;;;;30.73;27.70;;;14.60;99.90;;;;;;6138263;23;20024;-83
2023/10/06 07:02:50;;;;;;;32.85;30.15;;;14.70;99.90;;;;;;6139221;23;20016;-84
2023/10/06 07:05:19;;;;;;;39.50;36.13;;;14.70;99.90;;;;;;6164051;23;20009;-84
2023/10/06 07:07:47;;;;;;;28.35;23.02;;;14.80;99.90;;;;;;6163590;23;20220;-83
2023/10/06 07:10:15;;;;;;;31.52;28.42;;;14.80;99.90;;;;;;6137668;23;20020;-83
2023/10/06 07:12:42;;;;;;;25.45;22.92;;;14.80;99.90;;;;;;6139582;23;20408;-83
2023/10/06 07:15:15;;;;;;;41.50;38.10;;;15.00;99.90;;;;;;6154863;23;20080;-91
2023/10/06 07:17:45;;;;;;;37.20;33.78;;;14.90;99.90;;;;;;6141626;23;20053;-84
2023/10/06 07:20:16;;;;;;;30.38;27.25;;;14.90;99.90;;;;;;6166196;23;20013;-83
2023/10/06 07:22:43;;;;;;;42.17;38.58;;;15.00;99.90;;;;;;6141965;23;20045;-84
2023/10/06 07:25:10;;;;;;;28.30;25.17;;;15.00;99.90;;;;;;6166047;23;20017;-83
2023/10/06 07:27:38;;;;;;;26.65;23.60;;;15.00;99.90;;;;;;6165933;23;20495;-84
2023/10/06 07:30:05;;;;;;;27.50;24.77;;;15.00;99.90;;;;;;6165940;23;20017;-83
2023/10/06 07:32:34;;;;;;;26.92;21.60;;;15.10;99.90;;;;;;6142416;23;20393;-83
2023/10/06 07:35:00;;;;;;;27.20;21.45;;;15.10;99.90;;;;;;6166347;23;20024;-83
2023/10/06 07:37:26;;;;;;;31.17;22.83;;;15.20;99.90;;;;;;6166382;23;20038;-83
2023/10/06 07:39:52;;;;;;;37.60;33.65;;;15.20;99.90;;;;;;6166470;23;20008;-84
2023/10/06 07:42:18;;;;;;;27.13;23.23;;;15.20;99.90;;;;;;6165884;23;20078;-84
2023/10/06 07:44:43;;;;;;;30.30;25.85;;;15.60;99.90;;;;;;6165278;23;20360;-84
2023/10/06 07:47:10;;;;;;;33.75;30.70;;;15.40;99.90;;;;;;6166118;23;20448;-83
2023/10/06 07:49:37;;;;;;;25.23;21.98;;;15.50;99.90;;;;;;6140976;23;20013;-84
2023/10/06 07:52:04;;;;;;;28.45;25.67;;;15.60;99.90;;;;;;6141572;23;20041;-83
2023/10/06 07:54:32;;;;;;;33.45;30.30;;;15.70;99.90;;;;;;6166745;23;20013;-85
2023/10/06 07:56:58;;;;;;;26.73;24.05;;;15.70;99.90;;;;;;6141705;23;20044;-84
2023/10/06 07:59:25;;;;;;;32.63;26.55;;;15.80;99.90;;;;;;6141689;23;20091;-84
2023/10/06 08:01:51;;;;;;;25.17;21.25;;;15.80;99.90;;;;;;6141944;23;20436;-84
2023/10/06 08:04:17;;;;;;;22.63;20.38;;;15.80;99.90;;;;;;6140970;23;20028;-84
2023/10/06 08:06:45;;;;;;;26.58;23.98;;;15.80;99.90;;;;;;6166539;23;20009;-83
2023/10/06 08:09:11;;;;;;;28.35;20.95;;;15.70;99.90;;;;;;6166457;23;20464;-84
2023/10/06 08:11:39;;;;;;;37.78;33.85;;;15.70;99.90;;;;;;6166434;23;20055;-84
2023/10/06 08:14:06;;;;;;;26.88;24.48;;;15.70;99.90;;;;;;6178848;23;20017;-88
2023/10/06 08:16:33;;;;;;;24.95;22.30;;;15.70;99.90;;;;;;6143489;23;20040;-84
2023/10/06 08:18:59;;;;;;;29.25;26.45;;;15.70;99.90;;;;;;6164771;23;20053;-85
2023/10/06 08:21:25;;;;;;;23.25;19.63;;;15.80;99.90;;;;;;6170887;23;20360;-85
2023/10/06 08:23:51;;;;;;;22.65;20.55;;;15.90;99.90;;;;;;6169066;23;20020;-84
2023/10/06 08:26:17;;;;;;;31.75;28.05;;;16.00;99.90;;;;;;6145778;23;20005;-85
2023/10/06 08:28:42;;;;;;;22.60;20.35;;;16.10;99.90;;;;;;6169780;23;20067;-84
2023/10/06 08:31:17;;;;;;;23.50;17.83;;;16.10;99.90;;;;;;6168933;23;20009;-84
2023/10/06 08:33:45;;;;;;;23.92;21.20;;;16.10;99.90;;;;;;6145511;23;20017;-85
2023/10/06 08:36:11;;;;;;;24.13;20.42;;;16.40;99.90;;;;;;6145580;23;20013;-86
2023/10/06 08:38:37;;;;;;;27.02;23.02;;;16.60;99.90;;;;;;6144900;23;20037;-84
2023/10/06 08:41:04;;;;;;;24.98;17.15;;;16.80;99.90;;;;;;6145261;23;20009;-85
2023/10/06 08:43:32;;;;;;;21.27;17.85;;;16.80;99.90;;;;;;6169809;23;20020;-84
2023/10/06 08:46:00;;;;;;;23.58;18.23;;;17.00;99.90;;;;;;6145431;23;20017;-85
2023/10/06 08:48:31;;;;;;;24.27;19.42;;;17.10;99.90;;;;;;6170005;23;20252;-84
2023/10/06 08:50:59;;;;;;;24.40;19.75;;;17.20;99.90;;;;;;6169668;23;20009;-85
2023/10/06 08:53:26;;;;;;;25.10;18.27;;;17.20;99.90;;;;;;6169792;23;20017;-85
2023/10/06 08:55:52;;;;;;;23.88;19.00;;;17.40;99.90;;;;;;6145562;23;20013;-84
2023/10/06 08:58:18;;;;;;;28.10;21.45;;;17.40;99.90;;;;;;6169717;23;20089;-83
2023/10/06 09:00:44;;;;;;;24.15;18.17;;;17.60;99.90;;;;;;6169483;23;20009;-85
2023/10/06 09:03:14;;;;;;;30.40;21.50;;;17.70;99.90;;;;;;6144920;23;20016;-85
2023/10/06 09:05:44;;;;;;;27.63;24.85;;;17.80;99.90;;;;;;6145619;23;20071;-85
2023/10/06 09:08:11;;;;;;;26.98;24.48;;;17.70;99.90;;;;;;6144784;23;20020;-85
2023/10/06 09:10:40;;;;;;;27.77;24.77;;;17.80;99.90;;;;;;6168544;23;20021;-84
2023/10/06 09:13:17;;;;;;;31.10;24.92;;;17.70;99.90;;;;;;6170440;23;20067;-85
2023/10/06 09:15:44;;;;;;;29.15;26.05;;;17.90;99.90;;;;;;6145067;23;20013;-84
2023/10/06 09:18:21;;;;;;;27.00;24.13;;;18.00;99.90;;;;;;6169741;23;20013;-85
2023/10/06 09:20:49;;;;;;;27.63;24.98;;;18.10;99.90;;;;;;6170083;23;20021;-85
2023/10/06 09:23:32;;;;;;;27.27;24.63;;;18.20;99.90;;;;;;6170366;23;20013;-85
2023/10/06 09:26:02;;;;;;;28.67;25.83;;;18.20;99.90;;;;;;6145280;23;20049;-85
2023/10/06 09:28:28;;;;;;;30.05;27.17;;;18.10;99.90;;;;;;6144461;23;20142;-85
2023/10/06 09:31:01;;;;;;;28.83;25.88;;;17.90;99.90;;;;;;6169430;23;20013;-85
2023/10/06 09:33:27;;;;;;;;;;;17.90;99.90;;;;;;6145271;23;20100;-86
2023/10/06 09:36:07;;;;;;;26.75;23.98;;;17.90;99.90;;;;;;6169646;23;19912;-85
2023/10/06 09:38:35;;;;;;;28.80;26.33;;;18.00;99.90;;;;;;6145283;23;20017;-85
2023/10/06 09:41:02;;;;;;;27.25;24.58;;;18.00;99.90;;;;;;6169715;23;20052;-85
2023/10/06 09:43:32;;;;;;;29.70;22.50;;;18.00;99.90;;;;;;6169822;23;20021;-84
2023/10/06 09:46:03;;;;;;;31.15;25.60;;;18.10;99.90;;;;;;6144743;23;20021;-85
2023/10/06 09:48:33;;;;;;;27.50;24.77;;;18.00;99.90;;;;;;6169641;23;20027;-86
2023/10/06 09:51:06;;;;;;;;;;;18.00;99.90;;;;;;6147183;23;20484;-86
2023/10/06 09:53:36;;;;;;;28.40;25.88;;;18.00;99.90;;;;;;6145189;23;20217;-84
2023/10/06 09:56:06;;;;;;;27.92;25.33;;;18.10;99.90;;;;;;6145006;23;20130;-85
2023/10/06 09:58:32;;;;;;;25.98;22.80;;;18.10;99.90;;;;;;6144894;23;20017;-84
2023/10/06 10:01:00;;;;;;;26.55;24.15;;;18.20;99.90;;;;;;6169363;23;20013;-84
2023/10/06 10:03:33;;;;;;;26.13;23.63;;;18.30;99.90;;;;;;6145158;23;20012;-85
2023/10/06 10:06:04;;;;;;;21.88;19.70;;;18.40;99.90;;;;;;6144398;23;20017;-86
2023/10/06 10:08:39;;;;;;;22.02;17.00;;;18.70;99.90;;;;;;6145107;23;20036;-85
2023/10/06 10:11:14;;;;;;;28.83;26.27;;;18.80;99.90;;;;;;6144280;23;20017;-86
2023/10/06 10:13:55;;;;;;;23.02;17.88;;;18.80;99.90;;;;;;6145110;23;20055;-84
2023/10/06 10:16:48;;;;;;;22.20;18.40;;;19.20;99.90;;;;;;6144627;23;20075;-85
2023/10/06 10:19:18;;;;;;;18.75;15.30;;;19.20;99.90;;;;;;6144626;23;20040;-85
2023/10/06 10:21:45;;;;;;;20.17;16.52;;;19.30;99.90;;;;;;6143874;23;20013;-85
2023/10/06 10:24:14;;;;;;;18.63;15.02;;;19.40;99.90;;;;;;6168743;23;20013;-85
2023/10/06 10:26:45;;;;;;;19.33;15.70;;;19.60;99.90;;;;;;6145194;23;20013;-85
2023/10/06 10:29:17;;;;;;;20.40;18.27;;;19.70;99.90;;;;;;6144972;23;20032;-85
2023/10/06 10:31:51;;;;;;;22.27;15.70;;;19.80;99.90;;;;;;6144900;23;20388;-85
2023/10/06 10:34:25;;;;;;;20.30;14.27;;;19.70;99.90;;;;;;6168841;23;20041;-85
2023/10/06 10:37:05;;;;;;;18.13;15.68;;;19.80;99.90;;;;;;6144679;23;20013;-86
2023/10/06 10:39:50;;;;;;;22.40;16.00;;;19.90;99.90;;;;;;6144300;23;20013;-85
2023/10/06 10:42:37;;;;;;;22.20;15.98;;;19.90;99.90;;;;;;6144643;23;20048;-84
2023/10/06 10:45:36;;;;;;;19.35;15.32;;;19.90;99.90;;;;;;6168440;23;20096;-85
2023/10/06 10:48:17;;;;;;;22.45;18.00;;;20.00;99.90;;;;;;6145833;23;20013;-86
2023/10/06 10:51:12;;;;;;;19.92;16.73;;;20.00;99.90;;;;;;6169700;23;20037;-86
2023/10/06 10:53:43;;;;;;;17.38;15.43;;;20.10;99.90;;;;;;6145012;23;20021;-85
2023/10/06 10:56:17;;;;;;;17.50;15.70;;;20.20;99.90;;;;;;6144680;23;20039;-85
2023/10/06 10:58:46;;;;;;;20.15;15.20;;;20.30;99.90;;;;;;6169049;23;20240;-85
2023/10/06 11:01:31;;;;;;;23.10;14.10;;;20.20;99.90;;;;;;6144695;23;20024;-86
2023/10/06 11:04:09;;;;;;;22.98;16.15;;;20.10;99.90;;;;;;6169471;23;20046;-84
2023/10/06 11:06:37;;;;;;;19.15;14.80;;;20.30;99.90;;;;;;6169369;23;20044;-84
2023/10/06 11:09:12;;;;;;;18.42;14.73;;;20.50;99.90;;;;;;6144872;23;20371;-85
2023/10/06 11:11:39;;;;;;;17.15;13.52;;;20.50;99.90;;;;;;6145350;23;20016;-86
2023/10/06 11:14:05;;;;;;;20.83;13.10;;;20.60;99.90;;;;;;6145331;23;20009;-85
2023/10/06 11:16:32;;;;;;;19.77;12.65;;;20.50;99.90;;;;;;6145017;23;20018;-85
2023/10/06 11:18:59;;;;;;;18.50;13.50;;;20.50;99.90;;;;;;6143514;23;20039;-85
2023/10/06 11:21:25;;;;;;;17.15;14.38;;;20.30;99.90;;;;;;6144480;23;20009;-86
2023/10/06 11:23:51;;;;;;;24.23;22.25;;;20.20;99.90;;;;;;6145696;23;20017;-86
2023/10/06 11:26:32;;;;;;;18.70;13.73;;;20.00;99.90;;;;;;6170083;23;20043;-85
2023/10/06 11:29:00;;;;;;;16.10;13.50;;;20.00;99.90;;;;;;6169410;23;20036;-85
2023/10/06 11:31:29;;;;;;;18.42;13.68;;;19.90;99.90;;;;;;6144656;23;20009;-84
2023/10/06 11:33:58;;;;;;;16.88;15.02;;;20.00;99.90;;;;;;6168908;23;20100;-85
2023/10/06 11:36:24;;;;;;;20.10;15.68;;;20.00;99.90;;;;;;6145144;23;20020;-85
2023/10/06 11:38:50;;;;;;;20.17;13.52;;;19.90;99.90;;;;;;6144694;23;20013;-85
2023/10/06 11:41:25;;;;;;;16.50;12.30;;;19.90;99.90;;;;;;6170205;23;20398;-85
2023/10/06 11:43:58;;;;;;;17.33;14.95;;;19.90;99.90;;;;;;6145081;23;20068;-86
2023/10/06 11:46:24;;;;;;;20.02;13.32;;;19.90;99.90;;;;;;6169682;23;20539;-86
2023/10/06 11:48:52;;;;;;;22.10;13.45;;;19.80;99.90;;;;;;6144555;23;20104;-85
2023/10/06 11:51:18;;;;;;;21.27;17.55;;;19.90;99.90;;;;;;6144272;23;20307;-85
2023/10/06 11:53:44;;;;;;;20.20;14.15;;;19.90;99.90;;;;;;6144953;23;20017;-84
2023/10/06 11:56:16;;;;;;;17.60;13.32;;;19.90;99.90;;;;;;6169239;23;20013;-85
2023/10/06 11:58:45;;;;;;;18.67;14.82;;;19.90;99.90;;;;;;6146150;23;20021;-86
2023/10/06 12:01:36;;;;;;;17.65;15.02;;;19.90;99.90;;;;;;6146434;23;20027;-85
2023/10/06 12:04:04;;;;;;;23.92;13.90;;;19.90;99.90;;;;;;6171578;23;20516;-86
2023/10/06 12:06:40;;;;;;;20.00;13.05;;;20.00;99.90;;;;;;6146794;23;20024;-85
2023/10/06 12:09:13;;;;;;;21.17;13.00;;;20.00;99.90;;;;;;6147486;23;20013;-85
2023/10/06 12:11:39;;;;;;;25.75;14.35;;;20.00;99.90;;;;;;6171968;23;20017;-86
2023/10/06 12:14:05;;;;;;;19.90;12.10;;;20.00;99.90;;;;;;6147320;23;20065;-86
2023/10/06 12:16:31;;;;;;;15.00;13.32;;;20.00;99.90;;;;;;6146783;23;20012;-86
2023/10/06 12:18:57;;;;;;;15.80;11.63;;;19.90;99.90;;;;;;6171133;23;20063;-85
2023/10/06 12:21:23;;;;;;;21.92;12.70;;;19.90;99.90;;;;;;6146512;23;20020;-86
2023/10/06 12:23:48;;;;;;;19.10;14.77;;;19.90;99.90;;;;;;6147273;23;20040;-85
2023/10/06 12:26:14;;;;;;;16.38;12.63;;;19.90;99.90;;;;;;6171471;23;20053;-85
2023/10/06 12:28:42;;;;;;;21.10;15.43;;;19.90;99.90;;;;;;6147005;23;20013;-85
2023/10/06 12:31:11;;;;;;;15.20;13.30;;;20.00;99.90;;;;;;6146364;23;20028;-86
2023/10/06 12:33:38;;;;;;;22.90;17.13;;;20.00;99.90;;;;;;6171420;23;20096;-85
2023/10/06 12:36:08;;;;;;;22.40;14.48;;;20.00;99.90;;;;;;6147140;23;20048;-85
2023/10/06 12:38:35;;;;;;;20.35;16.92;;;20.10;99.90;;;;;;6170779;23;20016;-85
2023/10/06 12:41:01;;;;;;;18.30;11.00;;;20.30;99.90;;;;;;6171504;23;20061;-86